sensor_id;sensor_type;location;lat;lon;timestamp;temperature;humidity
4564;DHT22;2294;51.818;8.484;2022-08-19T00:01:15;18.60;99.90
4564;DHT22;2294;51.818;8.484;2022-08-19T00:03:42;18.60;99.90
4564;DHT22;2294;51.818;8.484;2022-08-19T00:06:11;18.80;99.90
4564;DHT22;2294;51.818;8.484;2022-08-19T00:08:38;18.60;99.90
4564;DHT22;2294;51.818;8.484;2022-08-19T00:11:05;18.70;99.90
4564;DHT22;2294;51.818;8.484;2022-08-19T00:13:33;18.70;99.90
4564;DHT22;2294;51.818;8.484;2022-08-19T00:16:00;18.60;99.90
4564;DHT22;2294;51.818;8.484;2022-08-19T00:18:27;18.50;99.90
4564;DHT22;2294;51.818;8.484;2022-08-19T00:20:54;19.20;99.90
4564;DHT22;2294;51.818;8.484;2022-08-19T00:23:22;18.50;99.90
4564;DHT22;2294;51.818;8.484;2022-08-19T00:25:49;18.40;99.90
4564;DHT22;2294;51.818;8.484;2022-08-19T00:28:16;18.40;99.90
4564;DHT22;2294;51.818;8.484;2022-08-19T00:30:43;18.40;99.90
4564;DHT22;2294;51.818;8.484;2022-08-19T00:33:10;18.50;99.90
4564;DHT22;2294;51.818;8.484;2022-08-19T00:35:37;18.50;99.90
4564;DHT22;2294;51.818;8.484;2022-08-19T00:38:04;18.40;99.90
4564;DHT22;2294;51.818;8.484;2022-08-19T00:40:33;18.20;99.90
4564;DHT22;2294;51.818;8.484;2022-08-19T00:43:00;18.20;99.90
4564;DHT22;2294;51.818;8.484;2022-08-19T00:45:28;18.20;99.90
4564;DHT22;2294;51.818;8.484;2022-08-19T00:47:57;18.10;99.90
4564;DHT22;2294;51.818;8.484;2022-08-19T00:50:24;18.00;99.90
4564;DHT22;2294;51.818;8.484;2022-08-19T00:52:51;18.10;99.90
4564;DHT22;2294;51.818;8.484;2022-08-19T00:55:25;18.20;99.90
4564;DHT22;2294;51.818;8.484;2022-08-19T00:57:59;18.10;99.90
4564;DHT22;2294;51.818;8.484;2022-08-19T01:00:28;18.00;99.90
4564;DHT22;2294;51.818;8.484;2022-08-19T01:02:55;17.90;99.90
4564;DHT22;2294;51.818;8.484;2022-08-19T01:05:25;17.90;99.90
4564;DHT22;2294;51.818;8.484;2022-08-19T01:07:53;18.00;99.90
4564;DHT22;2294;51.818;8.484;2022-08-19T01:10:24;17.90;99.90
4564;DHT22;2294;51.818;8.484;2022-08-19T01:12:52;17.80;99.90
4564;DHT22;2294;51.818;8.484;2022-08-19T01:15:24;17.80;99.90
4564;DHT22;2294;51.818;8.484;2022-08-19T01:17:53;17.80;99.90
4564;DHT22;2294;51.818;8.484;2022-08-19T01:20:23;17.80;99.90
4564;DHT22;2294;51.818;8.484;2022-08-19T01:22:54;17.70;99.90
4564;DHT22;2294;51.818;8.484;2022-08-19T01:25:24;17.40;99.90
4564;DHT22;2294;51.818;8.484;2022-08-19T01:27:53;17.30;99.90
4564;DHT22;2294;51.818;8.484;2022-08-19T01:30:22;17.30;99.90
4564;DHT22;2294;51.818;8.484;2022-08-19T01:32:50;17.30;99.90
4564;DHT22;2294;51.818;8.484;2022-08-19T01:35:18;17.30;99.90
4564;DHT22;2294;51.818;8.484;2022-08-19T01:37:48;17.30;99.90
4564;DHT22;2294;51.818;8.484;2022-08-19T01:40:18;17.30;99.90
4564;DHT22;2294;51.818;8.484;2022-08-19T01:42:46;17.40;99.90
4564;DHT22;2294;51.818;8.484;2022-08-19T01:45:13;17.40;99.90
4564;DHT22;2294;51.818;8.484;2022-08-19T01:47:40;17.30;99.90
4564;DHT22;2294;51.818;8.484;2022-08-19T01:50:09;17.40;99.90
4564;DHT22;2294;51.818;8.484;2022-08-19T01:52:36;17.40;99.90
4564;DHT22;2294;51.818;8.484;2022-08-19T01:55:05;17.40;99.90
4564;DHT22;2294;51.818;8.484;2022-08-19T01:57:34;17.40;99.90
4564;DHT22;2294;51.818;8.484;2022-08-19T02:00:03;17.30;99.90
4564;DHT22;2294;51.818;8.484;2022-08-19T02:02:31;17.30;99.90
4564;DHT22;2294;51.818;8.484;2022-08-19T02:04:59;17.30;99.90
4564;DHT22;2294;51.818;8.484;2022-08-19T02:07:26;17.40;99.90
4564;DHT22;2294;51.818;8.484;2022-08-19T02:09:54;17.40;99.90
4564;DHT22;2294;51.818;8.484;2022-08-19T02:12:21;17.30;99.90
4564;DHT22;2294;51.818;8.484;2022-08-19T02:14:50;17.40;99.90
4564;DHT22;2294;51.818;8.484;2022-08-19T02:17:17;17.40;99.90
4564;DHT22;2294;51.818;8.484;2022-08-19T02:19:43;17.30;99.90
4564;DHT22;2294;51.818;8.484;2022-08-19T02:22:10;17.20;99.90
4564;DHT22;2294;51.818;8.484;2022-08-19T02:24:37;17.20;99.90
4564;DHT22;2294;51.818;8.484;2022-08-19T02:27:05;17.10;99.90
4564;DHT22;2294;51.818;8.484;2022-08-19T02:29:32;17.10;99.90
4564;DHT22;2294;51.818;8.484;2022-08-19T02:32:00;17.10;99.90
4564;DHT22;2294;51.818;8.484;2022-08-19T02:34:27;17.10;99.90
4564;DHT22;2294;51.818;8.484;2022-08-19T02:36:54;17.10;99.90
4564;DHT22;2294;51.818;8.484;2022-08-19T02:39:21;17.10;99.90
4564;DHT22;2294;51.818;8.484;2022-08-19T02:41:47;17.10;99.90
4564;DHT22;2294;51.818;8.484;2022-08-19T02:44:14;17.00;99.90
4564;DHT22;2294;51.818;8.484;2022-08-19T02:46:41;17.10;99.90
4564;DHT22;2294;51.818;8.484;2022-08-19T02:49:12;17.10;99.90
4564;DHT22;2294;51.818;8.484;2022-08-19T02:51:42;17.10;99.90
4564;DHT22;2294;51.818;8.484;2022-08-19T02:54:11;17.00;99.90
4564;DHT22;2294;51.818;8.484;2022-08-19T02:56:40;17.00;99.90
4564;DHT22;2294;51.818;8.484;2022-08-19T02:59:07;16.80;99.90
4564;DHT22;2294;51.818;8.484;2022-08-19T03:01:38;16.80;99.90
4564;DHT22;2294;51.818;8.484;2022-08-19T03:04:07;16.80;99.90
4564;DHT22;2294;51.818;8.484;2022-08-19T03:06:38;16.80;99.90
4564;DHT22;2294;51.818;8.484;2022-08-19T03:09:05;16.90;99.90
4564;DHT22;2294;51.818;8.484;2022-08-19T03:11:32;16.80;99.90
4564;DHT22;2294;51.818;8.484;2022-08-19T03:14:00;16.80;99.90
4564;DHT22;2294;51.818;8.484;2022-08-19T03:16:29;16.70;99.90
4564;DHT22;2294;51.818;8.484;2022-08-19T03:18:57;16.80;99.90
4564;DHT22;2294;51.818;8.484;2022-08-19T03:21:30;16.80;99.90
4564;DHT22;2294;51.818;8.484;2022-08-19T03:24:01;16.80;99.90
4564;DHT22;2294;51.818;8.484;2022-08-19T03:26:28;16.70;99.90
4564;DHT22;2294;51.818;8.484;2022-08-19T03:28:56;16.80;99.90
4564;DHT22;2294;51.818;8.484;2022-08-19T03:31:26;16.70;99.90
4564;DHT22;2294;51.818;8.484;2022-08-19T03:33:53;16.60;99.90
4564;DHT22;2294;51.818;8.484;2022-08-19T03:36:23;16.60;99.90
4564;DHT22;2294;51.818;8.484;2022-08-19T03:38:52;16.60;99.90
4564;DHT22;2294;51.818;8.484;2022-08-19T03:41:24;16.60;99.90
4564;DHT22;2294;51.818;8.484;2022-08-19T03:43:52;16.50;99.90
4564;DHT22;2294;51.818;8.484;2022-08-19T03:46:23;16.60;99.90
4564;DHT22;2294;51.818;8.484;2022-08-19T03:48:52;16.70;99.90
4564;DHT22;2294;51.818;8.484;2022-08-19T03:51:21;16.60;99.90
4564;DHT22;2294;51.818;8.484;2022-08-19T03:53:48;16.50;99.90
4564;DHT22;2294;51.818;8.484;2022-08-19T03:56:16;16.40;99.90
4564;DHT22;2294;51.818;8.484;2022-08-19T03:58:45;16.50;99.90
4564;DHT22;2294;51.818;8.484;2022-08-19T04:01:14;16.50;99.90
4564;DHT22;2294;51.818;8.484;2022-08-19T04:03:43;16.50;99.90
4564;DHT22;2294;51.818;8.484;2022-08-19T04:06:12;16.50;99.90
4564;DHT22;2294;51.818;8.484;2022-08-19T04:08:39;16.40;99.90
4564;DHT22;2294;51.818;8.484;2022-08-19T04:11:08;16.30;99.90
4564;DHT22;2294;51.818;8.484;2022-08-19T04:13:35;16.40;99.90
4564;DHT22;2294;51.818;8.484;2022-08-19T04:16:04;16.40;99.90
4564;DHT22;2294;51.818;8.484;2022-08-19T04:18:31;16.20;99.90
4564;DHT22;2294;51.818;8.484;2022-08-19T04:20:58;16.20;99.90
4564;DHT22;2294;51.818;8.484;2022-08-19T04:23:26;16.40;99.90
4564;DHT22;2294;51.818;8.484;2022-08-19T04:25:54;16.40;99.90
4564;DHT22;2294;51.818;8.484;2022-08-19T04:28:23;16.40;99.90
4564;DHT22;2294;51.818;8.484;2022-08-19T04:30:52;16.30;99.90
4564;DHT22;2294;51.818;8.484;2022-08-19T04:33:22;16.30;99.90
4564;DHT22;2294;51.818;8.484;2022-08-19T04:35:51;16.30;99.90
4564;DHT22;2294;51.818;8.484;2022-08-19T04:38:20;16.30;99.90
4564;DHT22;2294;51.818;8.484;2022-08-19T04:40:49;16.30;99.90
4564;DHT22;2294;51.818;8.484;2022-08-19T04:43:35;16.40;99.90
4564;DHT22;2294;51.818;8.484;2022-08-19T04:46:05;16.30;99.90
4564;DHT22;2294;51.818;8.484;2022-08-19T04:48:34;16.40;99.90
4564;DHT22;2294;51.818;8.484;2022-08-19T04:51:01;16.50;99.90
4564;DHT22;2294;51.818;8.484;2022-08-19T04:53:35;16.40;99.90
4564;DHT22;2294;51.818;8.484;2022-08-19T04:56:05;16.40;99.90
4564;DHT22;2294;51.818;8.484;2022-08-19T04:58:33;16.40;99.90
4564;DHT22;2294;51.818;8.484;2022-08-19T05:01:00;16.30;99.90
4564;DHT22;2294;51.818;8.484;2022-08-19T05:03:28;16.40;99.90
4564;DHT22;2294;51.818;8.484;2022-08-19T05:06:04;16.50;99.90
4564;DHT22;2294;51.818;8.484;2022-08-19T05:08:34;16.60;99.90
4564;DHT22;2294;51.818;8.484;2022-08-19T05:11:06;16.70;99.90
4564;DHT22;2294;51.818;8.484;2022-08-19T05:13:33;16.80;99.90
4564;DHT22;2294;51.818;8.484;2022-08-19T05:16:00;16.80;99.90
4564;DHT22;2294;51.818;8.484;2022-08-19T05:18:27;16.80;99.90
4564;DHT22;2294;51.818;8.484;2022-08-19T05:21:15;16.80;99.90
4564;DHT22;2294;51.818;8.484;2022-08-19T05:24:00;16.70;99.90
4564;DHT22;2294;51.818;8.484;2022-08-19T05:26:28;16.70;99.90
4564;DHT22;2294;51.818;8.484;2022-08-19T05:28:55;16.80;99.90
4564;DHT22;2294;51.818;8.484;2022-08-19T05:31:22;16.90;99.90
4564;DHT22;2294;51.818;8.484;2022-08-19T05:33:49;16.90;99.90
4564;DHT22;2294;51.818;8.484;2022-08-19T05:36:17;16.90;99.90
4564;DHT22;2294;51.818;8.484;2022-08-19T05:38:45;17.00;99.90
4564;DHT22;2294;51.818;8.484;2022-08-19T05:41:14;17.00;99.90
4564;DHT22;2294;51.818;8.484;2022-08-19T05:43:42;17.00;99.90
4564;DHT22;2294;51.818;8.484;2022-08-19T05:46:16;17.10;99.90
4564;DHT22;2294;51.818;8.484;2022-08-19T05:48:44;17.10;99.90
4564;DHT22;2294;51.818;8.484;2022-08-19T05:51:11;17.20;99.90
4564;DHT22;2294;51.818;8.484;2022-08-19T05:53:39;17.30;99.90
4564;DHT22;2294;51.818;8.484;2022-08-19T05:56:07;17.40;99.90
4564;DHT22;2294;51.818;8.484;2022-08-19T05:58:35;17.40;99.90
4564;DHT22;2294;51.818;8.484;2022-08-19T06:01:03;17.40;99.90
4564;DHT22;2294;51.818;8.484;2022-08-19T06:03:32;17.40;99.90
4564;DHT22;2294;51.818;8.484;2022-08-19T06:06:00;17.60;99.90
4564;DHT22;2294;51.818;8.484;2022-08-19T06:08:28;17.60;99.90
4564;DHT22;2294;51.818;8.484;2022-08-19T06:10:56;17.60;99.90
4564;DHT22;2294;51.818;8.484;2022-08-19T06:13:23;17.60;99.90
4564;DHT22;2294;51.818;8.484;2022-08-19T06:15:51;17.70;99.90
4564;DHT22;2294;51.818;8.484;2022-08-19T06:18:18;17.70;99.90
4564;DHT22;2294;51.818;8.484;2022-08-19T06:20:45;17.70;99.90
4564;DHT22;2294;51.818;8.484;2022-08-19T06:23:12;17.60;99.90
4564;DHT22;2294;51.818;8.484;2022-08-19T06:25:39;17.70;99.90
4564;DHT22;2294;51.818;8.484;2022-08-19T06:28:07;17.70;99.90
4564;DHT22;2294;51.818;8.484;2022-08-19T06:30:35;17.80;99.90
4564;DHT22;2294;51.818;8.484;2022-08-19T06:33:02;17.90;99.90
4564;DHT22;2294;51.818;8.484;2022-08-19T06:35:30;18.00;99.90
4564;DHT22;2294;51.818;8.484;2022-08-19T06:37:57;18.00;99.90
4564;DHT22;2294;51.818;8.484;2022-08-19T06:40:24;18.00;99.90
4564;DHT22;2294;51.818;8.484;2022-08-19T06:42:52;18.00;99.90
4564;DHT22;2294;51.818;8.484;2022-08-19T06:45:23;18.20;99.90
4564;DHT22;2294;51.818;8.484;2022-08-19T06:47:50;18.20;99.90
4564;DHT22;2294;51.818;8.484;2022-08-19T06:50:21;18.30;99.90
4564;DHT22;2294;51.818;8.484;2022-08-19T06:52:48;18.30;99.90
4564;DHT22;2294;51.818;8.484;2022-08-19T06:55:15;18.50;99.90
4564;DHT22;2294;51.818;8.484;2022-08-19T06:57:42;18.60;99.90
4564;DHT22;2294;51.818;8.484;2022-08-19T07:00:12;18.70;99.90
4564;DHT22;2294;51.818;8.484;2022-08-19T07:02:40;18.70;99.90
4564;DHT22;2294;51.818;8.484;2022-08-19T07:05:08;18.70;99.90
4564;DHT22;2294;51.818;8.484;2022-08-19T07:07:35;18.90;99.90
4564;DHT22;2294;51.818;8.484;2022-08-19T07:10:03;19.10;99.90
4564;DHT22;2294;51.818;8.484;2022-08-19T07:12:32;19.10;99.90
4564;DHT22;2294;51.818;8.484;2022-08-19T07:14:59;19.10;99.90
4564;DHT22;2294;51.818;8.484;2022-08-19T07:17:27;19.20;99.90
4564;DHT22;2294;51.818;8.484;2022-08-19T07:19:55;19.30;99.90
4564;DHT22;2294;51.818;8.484;2022-08-19T07:22:22;19.30;99.90
4564;DHT22;2294;51.818;8.484;2022-08-19T07:24:49;19.50;99.90
4564;DHT22;2294;51.818;8.484;2022-08-19T07:27:16;19.60;99.90
4564;DHT22;2294;51.818;8.484;2022-08-19T07:29:44;19.40;99.90
4564;DHT22;2294;51.818;8.484;2022-08-19T07:32:11;19.50;99.90
4564;DHT22;2294;51.818;8.484;2022-08-19T07:34:38;19.60;99.90
4564;DHT22;2294;51.818;8.484;2022-08-19T07:37:06;19.70;99.90
4564;DHT22;2294;51.818;8.484;2022-08-19T07:39:35;19.80;99.90
4564;DHT22;2294;51.818;8.484;2022-08-19T07:42:06;19.90;99.90
4564;DHT22;2294;51.818;8.484;2022-08-19T07:44:33;19.90;99.90
4564;DHT22;2294;51.818;8.484;2022-08-19T07:47:00;20.10;99.90
4564;DHT22;2294;51.818;8.484;2022-08-19T07:49:28;20.10;99.90
4564;DHT22;2294;51.818;8.484;2022-08-19T07:51:57;20.20;99.90
4564;DHT22;2294;51.818;8.484;2022-08-19T07:54:28;20.40;99.90
4564;DHT22;2294;51.818;8.484;2022-08-19T07:56:55;20.50;99.90
4564;DHT22;2294;51.818;8.484;2022-08-19T07:59:23;20.80;99.90
4564;DHT22;2294;51.818;8.484;2022-08-19T08:01:50;20.90;99.90
4564;DHT22;2294;51.818;8.484;2022-08-19T08:04:18;21.00;99.90
4564;DHT22;2294;51.818;8.484;2022-08-19T08:07:03;21.20;99.90
4564;DHT22;2294;51.818;8.484;2022-08-19T08:09:49;21.30;99.90
4564;DHT22;2294;51.818;8.484;2022-08-19T08:12:18;21.50;99.90
4564;DHT22;2294;51.818;8.484;2022-08-19T08:14:47;21.70;99.90
4564;DHT22;2294;51.818;8.484;2022-08-19T08:17:15;21.70;99.90
4564;DHT22;2294;51.818;8.484;2022-08-19T08:19:44;21.80;99.90
4564;DHT22;2294;51.818;8.484;2022-08-19T08:22:14;21.80;99.90
4564;DHT22;2294;51.818;8.484;2022-08-19T08:25:13;22.20;99.90
4564;DHT22;2294;51.818;8.484;2022-08-19T08:27:43;22.40;99.90
4564;DHT22;2294;51.818;8.484;2022-08-19T08:30:13;22.40;99.90
4564;DHT22;2294;51.818;8.484;2022-08-19T08:32:40;22.30;99.90
4564;DHT22;2294;51.818;8.484;2022-08-19T08:35:10;22.30;99.90
4564;DHT22;2294;51.818;8.484;2022-08-19T08:37:38;22.20;99.90
4564;DHT22;2294;51.818;8.484;2022-08-19T08:40:17;22.30;99.90
4564;DHT22;2294;51.818;8.484;2022-08-19T08:42:51;22.20;99.90
4564;DHT22;2294;51.818;8.484;2022-08-19T08:45:21;22.40;99.90
4564;DHT22;2294;51.818;8.484;2022-08-19T08:47:51;22.30;99.90
4564;DHT22;2294;51.818;8.484;2022-08-19T08:50:23;22.10;99.90
4564;DHT22;2294;51.818;8.484;2022-08-19T08:52:53;22.30;99.90
4564;DHT22;2294;51.818;8.484;2022-08-19T08:55:27;22.30;99.90
4564;DHT22;2294;51.818;8.484;2022-08-19T08:58:00;22.30;99.90
4564;DHT22;2294;51.818;8.484;2022-08-19T09:00:29;22.40;99.90
4564;DHT22;2294;51.818;8.484;2022-08-19T09:02:58;22.60;99.90
4564;DHT22;2294;51.818;8.484;2022-08-19T09:05:32;23.00;99.90
4564;DHT22;2294;51.818;8.484;2022-08-19T09:08:04;23.30;99.90
4564;DHT22;2294;51.818;8.484;2022-08-19T09:10:38;23.50;99.90
4564;DHT22;2294;51.818;8.484;2022-08-19T09:13:15;23.20;99.90
4564;DHT22;2294;51.818;8.484;2022-08-19T09:15:52;23.20;99.90
4564;DHT22;2294;51.818;8.484;2022-08-19T09:18:20;23.40;99.90
4564;DHT22;2294;51.818;8.484;2022-08-19T09:20:47;23.70;99.90
4564;DHT22;2294;51.818;8.484;2022-08-19T09:23:14;24.10;99.90
4564;DHT22;2294;51.818;8.484;2022-08-19T09:25:41;23.50;99.90
4564;DHT22;2294;51.818;8.484;2022-08-19T09:28:10;23.60;99.90
4564;DHT22;2294;51.818;8.484;2022-08-19T09:30:40;23.80;99.90
4564;DHT22;2294;51.818;8.484;2022-08-19T09:33:07;23.70;99.90
4564;DHT22;2294;51.818;8.484;2022-08-19T09:35:34;23.50;99.90
4564;DHT22;2294;51.818;8.484;2022-08-19T09:38:02;23.50;99.90
4564;DHT22;2294;51.818;8.484;2022-08-19T09:40:29;23.50;99.90
4564;DHT22;2294;51.818;8.484;2022-08-19T09:42:57;23.60;99.90
4564;DHT22;2294;51.818;8.484;2022-08-19T09:45:29;24.00;99.90
4564;DHT22;2294;51.818;8.484;2022-08-19T09:47:57;24.10;99.90
4564;DHT22;2294;51.818;8.484;2022-08-19T09:50:24;24.60;99.90
4564;DHT22;2294;51.818;8.484;2022-08-19T09:52:51;24.20;99.90
4564;DHT22;2294;51.818;8.484;2022-08-19T09:55:22;23.80;99.90
4564;DHT22;2294;51.818;8.484;2022-08-19T09:57:49;23.60;99.90
4564;DHT22;2294;51.818;8.484;2022-08-19T10:00:16;23.80;99.90
4564;DHT22;2294;51.818;8.484;2022-08-19T10:02:44;24.00;99.90
4564;DHT22;2294;51.818;8.484;2022-08-19T10:05:12;24.20;99.90
4564;DHT22;2294;51.818;8.484;2022-08-19T10:07:56;24.00;99.90
4564;DHT22;2294;51.818;8.484;2022-08-19T10:10:26;23.80;99.90
4564;DHT22;2294;51.818;8.484;2022-08-19T10:12:53;24.00;99.90
4564;DHT22;2294;51.818;8.484;2022-08-19T10:15:20;23.90;99.90
4564;DHT22;2294;51.818;8.484;2022-08-19T10:17:48;24.20;99.90
4564;DHT22;2294;51.818;8.484;2022-08-19T10:20:15;24.40;99.90
4564;DHT22;2294;51.818;8.484;2022-08-19T10:22:43;24.20;99.90
4564;DHT22;2294;51.818;8.484;2022-08-19T10:25:10;24.30;99.90
4564;DHT22;2294;51.818;8.484;2022-08-19T10:27:42;24.50;99.90
4564;DHT22;2294;51.818;8.484;2022-08-19T10:30:10;24.50;99.90
4564;DHT22;2294;51.818;8.484;2022-08-19T10:32:37;24.80;99.90
4564;DHT22;2294;51.818;8.484;2022-08-19T10:35:06;24.40;99.90
4564;DHT22;2294;51.818;8.484;2022-08-19T10:37:34;24.20;99.90
4564;DHT22;2294;51.818;8.484;2022-08-19T10:40:01;24.40;99.90
4564;DHT22;2294;51.818;8.484;2022-08-19T10:42:28;24.00;99.90
4564;DHT22;2294;51.818;8.484;2022-08-19T10:44:56;23.90;99.90
4564;DHT22;2294;51.818;8.484;2022-08-19T10:47:23;23.60;99.90
4564;DHT22;2294;51.818;8.484;2022-08-19T10:49:51;24.20;99.90
4564;DHT22;2294;51.818;8.484;2022-08-19T10:52:37;24.60;99.90
4564;DHT22;2294;51.818;8.484;2022-08-19T10:55:06;24.50;99.90
4564;DHT22;2294;51.818;8.484;2022-08-19T10:57:50;24.60;99.90
4564;DHT22;2294;51.818;8.484;2022-08-19T11:00:18;24.80;99.90
4564;DHT22;2294;51.818;8.484;2022-08-19T11:02:45;24.90;99.90
4564;DHT22;2294;51.818;8.484;2022-08-19T11:05:12;24.90;99.90
4564;DHT22;2294;51.818;8.484;2022-08-19T11:07:42;24.90;99.90
4564;DHT22;2294;51.818;8.484;2022-08-19T11:10:11;25.10;99.90
4564;DHT22;2294;51.818;8.484;2022-08-19T11:12:40;25.00;99.90
4564;DHT22;2294;51.818;8.484;2022-08-19T11:15:08;25.10;99.90
4564;DHT22;2294;51.818;8.484;2022-08-19T11:17:37;25.10;99.90
4564;DHT22;2294;51.818;8.484;2022-08-19T11:20:07;25.20;99.90
4564;DHT22;2294;51.818;8.484;2022-08-19T11:22:35;25.70;99.90
4564;DHT22;2294;51.818;8.484;2022-08-19T11:25:04;25.70;99.90
4564;DHT22;2294;51.818;8.484;2022-08-19T11:27:31;25.90;99.90
4564;DHT22;2294;51.818;8.484;2022-08-19T11:29:58;25.60;99.90
4564;DHT22;2294;51.818;8.484;2022-08-19T11:32:25;25.30;99.90
4564;DHT22;2294;51.818;8.484;2022-08-19T11:34:52;25.30;99.90
4564;DHT22;2294;51.818;8.484;2022-08-19T11:37:19;25.60;99.90
4564;DHT22;2294;51.818;8.484;2022-08-19T11:39:46;25.90;99.90
4564;DHT22;2294;51.818;8.484;2022-08-19T11:42:17;25.80;99.90
4564;DHT22;2294;51.818;8.484;2022-08-19T11:45:02;26.30;99.90
4564;DHT22;2294;51.818;8.484;2022-08-19T11:47:30;25.90;99.90
4564;DHT22;2294;51.818;8.484;2022-08-19T11:49:57;25.90;99.90
4564;DHT22;2294;51.818;8.484;2022-08-19T11:52:24;25.90;99.90
4564;DHT22;2294;51.818;8.484;2022-08-19T11:54:50;26.10;99.90
4564;DHT22;2294;51.818;8.484;2022-08-19T11:57:19;25.90;99.90
4564;DHT22;2294;51.818;8.484;2022-08-19T11:59:50;25.60;99.90
4564;DHT22;2294;51.818;8.484;2022-08-19T12:02:17;25.80;99.90
4564;DHT22;2294;51.818;8.484;2022-08-19T12:04:44;26.10;99.90
4564;DHT22;2294;51.818;8.484;2022-08-19T12:07:11;26.10;99.90
4564;DHT22;2294;51.818;8.484;2022-08-19T12:09:38;26.30;99.90
4564;DHT22;2294;51.818;8.484;2022-08-19T12:12:06;26.30;99.90
4564;DHT22;2294;51.818;8.484;2022-08-19T12:14:35;26.60;99.90
4564;DHT22;2294;51.818;8.484;2022-08-19T12:17:02;26.40;99.90
4564;DHT22;2294;51.818;8.484;2022-08-19T12:19:30;26.10;99.90
4564;DHT22;2294;51.818;8.484;2022-08-19T12:21:59;26.50;99.90
4564;DHT22;2294;51.818;8.484;2022-08-19T12:24:27;26.30;99.90
4564;DHT22;2294;51.818;8.484;2022-08-19T12:26:54;26.90;99.90
4564;DHT22;2294;51.818;8.484;2022-08-19T12:29:24;27.00;99.90
4564;DHT22;2294;51.818;8.484;2022-08-19T12:31:55;26.70;99.90
4564;DHT22;2294;51.818;8.484;2022-08-19T12:34:26;26.50;99.90
4564;DHT22;2294;51.818;8.484;2022-08-19T12:36:55;26.70;99.90
4564;DHT22;2294;51.818;8.484;2022-08-19T12:39:22;27.10;99.90
4564;DHT22;2294;51.818;8.484;2022-08-19T12:41:49;27.40;99.90
4564;DHT22;2294;51.818;8.484;2022-08-19T12:44:16;27.70;99.90
4564;DHT22;2294;51.818;8.484;2022-08-19T12:46:43;27.70;99.90
4564;DHT22;2294;51.818;8.484;2022-08-19T12:49:12;26.80;99.90
4564;DHT22;2294;51.818;8.484;2022-08-19T12:51:39;26.70;99.90
4564;DHT22;2294;51.818;8.484;2022-08-19T12:54:06;27.00;99.90
4564;DHT22;2294;51.818;8.484;2022-08-19T12:56:33;28.00;99.90
4564;DHT22;2294;51.818;8.484;2022-08-19T12:59:01;27.60;99.90
4564;DHT22;2294;51.818;8.484;2022-08-19T13:01:28;27.90;99.90
4564;DHT22;2294;51.818;8.484;2022-08-19T13:03:58;27.80;99.90
4564;DHT22;2294;51.818;8.484;2022-08-19T13:06:26;28.00;99.90
4564;DHT22;2294;51.818;8.484;2022-08-19T13:08:54;27.40;99.90
4564;DHT22;2294;51.818;8.484;2022-08-19T13:11:22;27.40;99.90
4564;DHT22;2294;51.818;8.484;2022-08-19T13:13:51;27.10;99.90
4564;DHT22;2294;51.818;8.484;2022-08-19T13:16:20;27.70;99.90
4564;DHT22;2294;51.818;8.484;2022-08-19T13:18:49;27.70;99.90
4564;DHT22;2294;51.818;8.484;2022-08-19T13:21:18;27.00;99.90
4564;DHT22;2294;51.818;8.484;2022-08-19T13:23:47;27.30;99.90
4564;DHT22;2294;51.818;8.484;2022-08-19T13:26:15;27.10;99.90
4564;DHT22;2294;51.818;8.484;2022-08-19T13:28:44;27.50;99.90
4564;DHT22;2294;51.818;8.484;2022-08-19T13:31:30;28.20;99.90
4564;DHT22;2294;51.818;8.484;2022-08-19T13:34:16;28.20;99.90
4564;DHT22;2294;51.818;8.484;2022-08-19T13:36:43;28.60;99.90
4564;DHT22;2294;51.818;8.484;2022-08-19T13:39:11;28.50;99.90
4564;DHT22;2294;51.818;8.484;2022-08-19T13:41:43;27.60;99.90
4564;DHT22;2294;51.818;8.484;2022-08-19T13:44:14;28.60;99.90
4564;DHT22;2294;51.818;8.484;2022-08-19T13:46:43;29.00;99.90
4564;DHT22;2294;51.818;8.484;2022-08-19T13:49:11;28.80;99.90
4564;DHT22;2294;51.818;8.484;2022-08-19T13:51:39;28.30;99.90
4564;DHT22;2294;51.818;8.484;2022-08-19T13:54:06;28.70;99.90
4564;DHT22;2294;51.818;8.484;2022-08-19T13:56:38;29.90;99.90
4564;DHT22;2294;51.818;8.484;2022-08-19T13:59:06;29.80;99.90
4564;DHT22;2294;51.818;8.484;2022-08-19T14:01:33;31.50;99.90
4564;DHT22;2294;51.818;8.484;2022-08-19T14:04:00;29.80;99.90
4564;DHT22;2294;51.818;8.484;2022-08-19T14:06:27;30.50;99.90
4564;DHT22;2294;51.818;8.484;2022-08-19T14:08:54;32.10;99.90
4564;DHT22;2294;51.818;8.484;2022-08-19T14:11:21;30.60;99.90
4564;DHT22;2294;51.818;8.484;2022-08-19T14:13:51;30.20;99.90
4564;DHT22;2294;51.818;8.484;2022-08-19T14:16:18;29.30;99.90
4564;DHT22;2294;51.818;8.484;2022-08-19T14:18:46;29.40;99.90
4564;DHT22;2294;51.818;8.484;2022-08-19T14:21:17;28.50;99.90
4564;DHT22;2294;51.818;8.484;2022-08-19T14:23:46;28.70;99.90
4564;DHT22;2294;51.818;8.484;2022-08-19T14:26:15;28.80;99.90
4564;DHT22;2294;51.818;8.484;2022-08-19T14:28:43;28.10;99.90
4564;DHT22;2294;51.818;8.484;2022-08-19T14:31:15;30.60;99.90
4564;DHT22;2294;51.818;8.484;2022-08-19T14:33:45;31.90;99.90
4564;DHT22;2294;51.818;8.484;2022-08-19T14:36:12;32.90;99.90
4564;DHT22;2294;51.818;8.484;2022-08-19T14:38:39;29.50;99.90
4564;DHT22;2294;51.818;8.484;2022-08-19T14:41:12;28.80;99.90
4564;DHT22;2294;51.818;8.484;2022-08-19T14:43:41;27.90;99.90
4564;DHT22;2294;51.818;8.484;2022-08-19T14:46:08;28.00;99.90
4564;DHT22;2294;51.818;8.484;2022-08-19T14:48:37;30.50;99.90
4564;DHT22;2294;51.818;8.484;2022-08-19T14:51:04;31.40;99.90
4564;DHT22;2294;51.818;8.484;2022-08-19T14:53:32;30.30;99.90
4564;DHT22;2294;51.818;8.484;2022-08-19T14:56:00;31.20;99.90
4564;DHT22;2294;51.818;8.484;2022-08-19T14:58:27;32.80;99.90
4564;DHT22;2294;51.818;8.484;2022-08-19T15:00:54;34.80;99.90
4564;DHT22;2294;51.818;8.484;2022-08-19T15:03:21;32.40;99.90
4564;DHT22;2294;51.818;8.484;2022-08-19T15:05:49;32.20;99.90
4564;DHT22;2294;51.818;8.484;2022-08-19T15:08:16;32.80;99.90
4564;DHT22;2294;51.818;8.484;2022-08-19T15:10:43;33.20;99.90
4564;DHT22;2294;51.818;8.484;2022-08-19T15:13:11;31.90;99.90
4564;DHT22;2294;51.818;8.484;2022-08-19T15:15:38;33.40;99.90
4564;DHT22;2294;51.818;8.484;2022-08-19T15:18:05;33.40;99.90
4564;DHT22;2294;51.818;8.484;2022-08-19T15:20:32;33.40;99.90
4564;DHT22;2294;51.818;8.484;2022-08-19T15:23:00;31.90;99.90
4564;DHT22;2294;51.818;8.484;2022-08-19T15:25:27;32.80;99.90
4564;DHT22;2294;51.818;8.484;2022-08-19T15:27:55;32.40;99.90
4564;DHT22;2294;51.818;8.484;2022-08-19T15:30:23;30.80;99.90
4564;DHT22;2294;51.818;8.484;2022-08-19T15:32:51;30.30;99.90
4564;DHT22;2294;51.818;8.484;2022-08-19T15:35:21;29.40;99.90
4564;DHT22;2294;51.818;8.484;2022-08-19T15:37:48;28.80;99.90
4564;DHT22;2294;51.818;8.484;2022-08-19T15:40:18;29.40;99.90
4564;DHT22;2294;51.818;8.484;2022-08-19T15:42:46;30.80;99.90
4564;DHT22;2294;51.818;8.484;2022-08-19T15:45:15;29.40;99.90
4564;DHT22;2294;51.818;8.484;2022-08-19T15:47:42;28.90;99.90
4564;DHT22;2294;51.818;8.484;2022-08-19T15:50:11;28.00;99.90
4564;DHT22;2294;51.818;8.484;2022-08-19T15:52:45;28.20;99.90
4564;DHT22;2294;51.818;8.484;2022-08-19T15:55:12;28.00;99.90
4564;DHT22;2294;51.818;8.484;2022-08-19T15:57:40;28.00;99.90
4564;DHT22;2294;51.818;8.484;2022-08-19T16:00:24;27.60;99.90
4564;DHT22;2294;51.818;8.484;2022-08-19T16:03:13;27.60;99.90
4564;DHT22;2294;51.818;8.484;2022-08-19T16:06:12;27.60;99.90
4564;DHT22;2294;51.818;8.484;2022-08-19T16:08:51;27.40;99.90
4564;DHT22;2294;51.818;8.484;2022-08-19T16:11:21;27.50;99.90
4564;DHT22;2294;51.818;8.484;2022-08-19T16:13:50;27.80;99.90